Detalii statie INDEPENDENTA [00001985]

Toti senzorii

Date Temperatura solului [C]Precipitatii [mm]Voltaj baterie [mV]Leaf Wetness [Min]HC Air temperature [C]HC Relative humidity [%]Punctul de roua [C]
medieminmaxsumaultimatimpmedieminmaxmediemediemin
2019-10-19 23:00:00 0 6844 13.67 13.59 13.75 0 0 0
2019-10-20 00:00:00 0 6826 13.48 13.36 13.62 0 0 0
2019-10-20 01:00:00 0 6834 12.99 12.7 13.33 11.59 1.2 0
2019-10-20 02:00:00 0 6826 12.38 11.99 12.61 83.38 9.3 6.8
2019-10-20 03:00:00 0 6826 11.83 11.62 12.01 69.94 6.3 6.1
2019-10-20 04:00:00 0 6796 11.29 10.55 11.94 72.32 6.2 5.1
2019-10-20 05:00:00 0 6756 9.88 9.47 10.55 84.96 7.1 4.5
2019-10-20 06:00:00 0 6796 9.84 9.44 10.34 77.65 5.8 4.1
2019-10-20 07:00:00 0 6776 10.34 10.12 10.46 95 9.4 4.9
2019-10-20 08:00:00 0 6776 9.94 9.6 10.45 100 9.9 9.6
2019-10-20 09:00:00 0 6806 11.01 10.57 11.56 100 10.9 10.5
2019-10-20 10:00:00 0 6884 12.07 11.65 12.72 92.4 10.6 6.6
2019-10-20 11:00:00 0 6982 13.74 12.7 14.64 100 13.7 12.7
2019-10-20 12:00:00 0 7010 14.8 14.42 15.45 100 14.7 14.4
2019-10-20 13:00:00 0 6982 17.81 15.31 23.32 89.08 0
2019-10-20 14:00:00 0 6972 26.17 23.52 28.15 0 0 0
2019-10-20 15:00:00 0 6992 28.86 28.02 29.65 0 0 0
2019-10-20 16:00:00 0 7000 29.91 27.74 30.89 0 0 0
2019-10-20 17:00:00 0 7166 30.37 29.73 31.34 0 0 0
2019-10-20 18:00:00 0 6922 27.36 24.04 29.8 0 0 0
2019-10-20 19:00:00 0 6894 21.3 19.98 23.43 0 0 0
2019-10-20 20:00:00 0 6864 19.09 18.4 19.87 0 0 0
2019-10-20 21:00:00 0 6864 17.52 16.5 18.29 0 0 0
2019-10-20 22:00:00 0 6854 15.34 14.54 16.25 0 0 0
2019-10-20 23:00:00 0 6844 14.17 13.66 14.54 0 0 0
2019-10-21 00:00:00 0 6834 13.57 13.51 13.64 0 0 0
2019-10-21 01:00:00 0 6826 12.95 12.62 13.44 0 0 0
2019-10-21 02:00:00 0 6826 12.45 12.31 12.65 0 0 0
2019-10-21 03:00:00 0 6766 12.14 11.62 12.45 49.14 -4.5 0
2019-10-21 04:00:00 0 6796 11.51 11.37 12.02 69.36 5.9 5.8
2019-10-21 05:00:00 0 6776 11.47 11.37 11.6 78.93 7.6 5.8
2019-10-21 06:00:00 0 6776 11.32 11.08 11.64 100 11.2 11
2019-10-21 07:00:00 0 6796 10.76 10.5 11.04 97.56 10.2 5.3
2019-10-21 08:00:00 0 6776 10.55 10.35 10.81 100 10.5 10.3
2019-10-21 09:00:00 0 6806 11.46 10.49 12.37 100 11.4 10.4
2019-10-21 10:00:00 0 6894 13.59 12.62 14.85 97.49 13 7.8
2019-10-21 11:00:00 0 6942 15.37 14.29 16.38 92.52 13.9 8.7
2019-10-21 12:00:00 0 6942 20.65 17.18 23.67 80.84 16.2 0
2019-10-21 13:00:00 0 6932 23.23 21.89 24.2 0 0 0
2019-10-21 14:00:00 0 6932 25.21 23.07 26.69 0 0 0
2019-10-21 15:00:00 0 6982 26.43 25.12 28.27 0 0 0
2019-10-21 16:00:00 0 7000 28.01 26.19 30.7 0 0 0
2019-10-21 17:00:00 0 7000 30.71 29.22 31.45 0 0 0
2019-10-21 18:00:00 0 6932 27.59 24.9 30.75 0 0 0
2019-10-21 19:00:00 0 6884 21.02 19.3 23.61 0 0 0